Time;durP1;ratioP1;P1;durP2;ratioP2;P2;SDS_P1;SDS_P2;PMS_P1;PMS_P2;Temp;Humidity;BMP_temperature;BMP_pressure;BME280_temperature;BME280_humidity;BME280_pressure;Samples;Min_cycle;Max_cycle;Signal;HPM_P1;HPM_P2
2022/10/16 00:01:13;;;;;;;6.72;5.45;;;;;;;14.42;76.73;100172.22;5019725;28;96893;-83
2022/10/16 00:03:40;;;;;;;7.97;6.03;;;;;;;14.44;76.70;100175.63;5050896;27;98002;-84
2022/10/16 00:06:06;;;;;;;7.85;5.75;;;;;;;14.52;76.70;100174.44;5052181;27;98683;-82
2022/10/16 00:08:32;;;;;;;6.93;5.72;;;;;;;14.44;76.83;100170.34;5035736;28;97138;-83
2022/10/16 00:11:27;;;;;;;12.18;6.00;;;;;;;14.48;76.92;100186.88;5021066;28;96889;-83
2022/10/16 00:13:57;;;;;;;7.63;5.80;;;;;;;14.52;76.87;100177.06;5016980;28;98548;-83
2022/10/16 00:16:23;;;;;;;6.18;5.53;;;;;;;14.53;76.57;100179.63;5017871;28;100672;-83
2022/10/16 00:18:48;;;;;;;12.13;6.47;;;;;;;14.51;76.59;100176.16;5017828;28;96803;-83
2022/10/16 00:21:18;;;;;;;9.95;6.10;;;;;;;14.45;76.35;100150.94;5035928;28;97044;-83
2022/10/16 00:23:44;;;;;;;10.32;6.20;;;;;;;14.57;76.35;100173.22;5015947;28;101597;-83
2022/10/16 00:26:12;;;;;;;7.63;5.95;;;;;;;14.37;76.42;100139.06;5035085;27;101639;-83
2022/10/16 00:28:38;;;;;;;6.70;5.60;;;;;;;14.49;76.24;100163.06;4998276;28;97091;-83
2022/10/16 00:31:11;;;;;;;8.82;6.05;;;;;;;14.52;76.24;100167.34;5036166;28;96788;-83
2022/10/16 00:33:37;;;;;;;8.07;6.10;;;;;;;14.43;76.33;100159.88;5035235;28;98073;-83
2022/10/16 00:36:04;;;;;;;10.98;6.10;;;;;;;14.35;76.90;100164.72;5035741;27;101136;-82
2022/10/16 00:38:30;;;;;;;8.07;6.50;;;;;;;14.27;77.00;100154.53;5034958;28;97943;-86
2022/10/16 00:40:55;;;;;;;7.75;5.95;;;;;;;14.26;77.15;100164.25;5000779;28;97504;-83
2022/10/16 00:43:38;;;;;;;7.18;5.68;;;;;;;14.35;77.16;100178.75;5035037;27;101222;-82
2022/10/16 00:46:11;;;;;;;9.10;6.32;;;;;;;14.33;77.31;100179.78;5022859;28;101240;-83
2022/10/16 00:48:36;;;;;;;9.70;5.95;;;;;;;14.21;77.11;100163.63;5050863;27;96667;-83
2022/10/16 00:51:02;;;;;;;10.65;6.47;;;;;;;14.34;76.95;100173.53;5019072;28;96903;-83
2022/10/16 00:53:28;;;;;;;7.40;6.43;;;;;;;14.27;77.26;100171.22;5048365;27;101398;-83
2022/10/16 00:55:54;;;;;;;7.60;5.50;;;;;;;14.28;77.42;100172.06;5033198;27;97264;-83
2022/10/16 00:58:20;;;;;;;9.07;6.53;;;;;;;14.28;77.54;100172.06;5025087;28;97017;-84
2022/10/16 01:00:45;;;;;;;11.40;6.15;;;;;;;14.39;76.96;100179.44;5035395;28;96861;-82
2022/10/16 01:03:46;;;;;;;9.32;6.70;;;;;;;14.29;77.57;100178.22;5018676;28;97939;-83
2022/10/16 01:06:29;;;;;;;9.23;6.43;;;;;;;14.35;77.12;100175.28;4977182;28;98485;-83
2022/10/16 01:09:16;;;;;;;14.52;6.32;;;;;;;14.27;77.51;100167.75;5033150;27;97177;-83
2022/10/16 01:11:49;;;;;;;10.68;6.63;;;;;;;14.33;76.91;100167.41;5024063;28;96874;-83
2022/10/16 01:14:22;;;;;;;7.70;6.35;;;;;;;14.20;77.38;100156.66;5037698;27;98618;-83
2022/10/16 01:16:58;;;;;;;12.55;6.05;;;;;;;14.17;77.06;100155.97;5020117;28;101957;-82
2022/10/16 01:19:49;;;;;;;8.23;6.15;;;;;;;14.28;76.65;100166.78;4998198;28;97210;-83
2022/10/16 01:22:15;;;;;;;10.43;6.00;;;;;;;14.23;76.71;100164.41;5035519;28;96874;-83
2022/10/16 01:24:44;;;;;;;7.88;5.97;;;;;;;14.04;77.19;100161.84;5017142;28;100946;-82
2022/10/16 01:27:26;;;;;;;9.60;5.32;;;;;;;14.13;77.43;100178.16;5001265;28;102041;-83
2022/10/16 01:30:15;;;;;;;7.30;5.97;;;;;;;14.04;77.16;100175.03;5017750;28;96907;-82
2022/10/16 01:32:45;;;;;;;11.88;6.28;;;;;;;14.04;77.92;100179.47;5034137;28;96919;-84
2022/10/16 01:35:16;;;;;;;13.00;6.43;;;;;;;14.04;78.09;100192.66;5000471;28;101812;-83
2022/10/16 01:37:48;;;;;;;7.00;5.13;;;;;;;13.96;78.01;100166.69;5010387;28;101038;-83
2022/10/16 01:40:16;;;;;;;8.32;5.03;;;;;;;14.10;77.64;100168.59;5035346;28;96713;-83
2022/10/16 01:42:48;;;;;;;10.57;5.22;;;;;;;14.19;77.29;100164.63;5034549;27;97112;-83
2022/10/16 01:45:17;;;;;;;8.10;5.30;;;;;;;14.06;77.60;100151.22;5034041;28;101865;-82
2022/10/16 01:47:44;;;;;;;9.48;6.78;;;;;;;14.22;76.83;100162.72;5020117;28;98066;-83
2022/10/16 01:50:10;;;;;;;8.00;6.15;;;;;;;14.19;77.19;100178.69;5017171;28;96795;-83
2022/10/16 01:52:39;;;;;;;7.78;6.35;;;;;;;14.16;77.19;100183.28;5015017;28;97091;-85
2022/10/16 01:55:06;;;;;;;9.55;5.85;;;;;;;14.04;77.95;100179.47;5013908;28;101682;-83
2022/10/16 01:57:35;;;;;;;6.97;5.50;;;;;;;13.85;78.60;100163.72;5012709;28;100220;-83
2022/10/16 02:00:06;;;;;;;7.53;6.05;;;;;;;13.88;78.47;100165.34;5016760;28;96914;-83
2022/10/16 02:02:40;;;;;;;6.63;5.75;;;;;;;14.01;78.27;100188.38;5030995;28;97250;-86
2022/10/16 02:05:14;;;;;;;9.65;5.68;;;;;;;13.97;78.25;100170.16;5017921;28;101330;-83
2022/10/16 02:07:41;;;;;;;9.45;5.82;;;;;;;14.20;77.38;100192.75;5033633;28;98416;-84
2022/10/16 02:10:08;;;;;;;10.00;6.20;;;;;;;13.99;77.96;100171.81;5030859;28;96962;-83
2022/10/16 02:12:36;;;;;;;7.03;5.60;;;;;;;13.93;77.94;100152.75;4998459;28;97062;-83
2022/10/16 02:15:02;;;;;;;9.25;6.38;;;;;;;14.10;77.76;100176.50;5033288;28;101434;-83
2022/10/16 02:17:28;;;;;;;8.05;6.07;;;;;;;14.06;77.98;100187.31;5017331;28;101700;-83
2022/10/16 02:19:55;;;;;;;9.27;6.43;;;;;;;13.93;78.18;100181.78;5013629;28;97271;-83
2022/10/16 02:22:31;;;;;;;8.50;6.70;;;;;;;14.09;77.88;100195.94;5024281;27;96892;-82
2022/10/16 02:25:00;;;;;;;7.00;5.90;;;;;;;13.98;78.42;100199.09;5028123;28;101035;-84
2022/10/16 02:27:50;;;;;;;9.82;6.35;;;;;;;13.93;78.90;100194.97;4986887;28;101419;-83
2022/10/16 02:30:24;;;;;;;8.65;6.47;;;;;;;13.99;78.14;100208.75;5050206;27;97318;-85
2022/10/16 02:32:50;;;;;;;7.47;6.35;;;;;;;13.95;78.15;100208.97;5050799;27;96982;-82
2022/10/16 02:35:18;;;;;;;7.65;6.80;;;;;;;13.87;78.64;100182.94;5016586;28;101068;-82
2022/10/16 02:37:44;;;;;;;8.32;6.30;;;;;;;13.87;78.65;100205.84;4999924;28;100687;-83
2022/10/16 02:40:10;;;;;;;8.80;5.85;;;;;;;13.95;78.92;100211.59;5016486;28;98361;-83
2022/10/16 02:42:38;;;;;;;10.73;6.28;;;;;;;13.94;78.45;100192.28;5006329;28;99561;-83
2022/10/16 02:45:04;;;;;;;11.32;6.13;;;;;;;13.95;78.28;100193.97;5033301;28;97966;-83
2022/10/16 02:47:30;;;;;;;11.55;6.50;;;;;;;14.06;77.99;100224.28;5033058;27;101220;-83
2022/10/16 02:49:55;;;;;;;8.95;6.18;;;;;;;14.04;77.81;100213.78;5017058;28;97053;-82
2022/10/16 02:52:21;;;;;;;9.57;5.85;;;;;;;14.07;77.66;100212.78;5051206;27;97039;-82
2022/10/16 02:54:47;;;;;;;9.05;6.18;;;;;;;14.05;77.76;100212.88;5016418;28;101445;-83
2022/10/16 02:57:12;;;;;;;9.63;6.65;;;;;;;13.98;77.81;100203.53;5009067;28;101000;-82
2022/10/16 02:59:38;;;;;;;10.50;6.85;;;;;;;14.03;77.91;100220.84;5033658;28;97073;-82
2022/10/16 03:02:04;;;;;;;8.52;7.32;;;;;;;14.10;78.19;100215.25;5016863;28;97078;-83
2022/10/16 03:04:30;;;;;;;10.23;7.10;;;;;;;14.11;78.30;100219.59;5032969;28;101726;-83
2022/10/16 03:06:55;;;;;;;9.18;7.15;;;;;;;14.18;78.47;100213.94;5033250;28;101809;-83
2022/10/16 03:09:21;;;;;;;8.00;6.30;;;;;;;14.03;78.83;100226.13;4996970;28;97000;-82
2022/10/16 03:11:46;;;;;;;9.90;6.78;;;;;;;14.06;78.84;100219.84;5035991;28;96792;-83
2022/10/16 03:14:12;;;;;;;9.75;7.25;;;;;;;14.04;79.39;100221.69;5053256;27;101319;-82
2022/10/16 03:16:37;;;;;;;8.98;6.78;;;;;;;14.12;79.20;100234.53;5071045;27;97422;-84
2022/10/16 03:19:03;;;;;;;7.72;6.68;;;;;;;14.04;79.67;100227.81;5036883;28;96771;-83
2022/10/16 03:21:29;;;;;;;7.30;6.20;;;;;;;13.96;80.06;100221.22;5020575;28;96830;-82
2022/10/16 03:23:55;;;;;;;7.38;6.15;;;;;;;14.04;79.76;100221.69;5002635;28;101630;-83
2022/10/16 03:26:20;;;;;;;9.02;7.13;;;;;;;14.11;79.69;100222.22;5036785;28;97450;-82
2022/10/16 03:28:46;;;;;;;7.45;6.60;;;;;;;14.18;79.61;100228.94;5033533;28;96821;-85
2022/10/16 03:31:11;;;;;;;6.97;5.93;;;;;;;14.18;79.85;100234.22;5020337;28;96941;-83
2022/10/16 03:33:37;;;;;;;6.93;6.22;;;;;;;14.36;79.58;100235.06;5031244;28;98033;-84
2022/10/16 03:36:02;;;;;;;8.18;6.88;;;;;;;14.31;79.73;100230.03;5035956;28;101320;-82
2022/10/16 03:38:28;;;;;;;9.30;6.95;;;;;;;14.28;80.13;100243.34;5019730;28;96907;-82
2022/10/16 03:40:54;;;;;;;8.90;7.53;;;;;;;14.24;80.24;100221.53;5022379;28;96847;-83
2022/10/16 03:43:19;;;;;;;8.57;6.65;;;;;;;14.21;80.56;100249.91;5036216;28;101830;-84
2022/10/16 03:45:45;;;;;;;7.20;6.22;;;;;;;14.24;80.57;100240.03;5036319;28;97496;-83
2022/10/16 03:48:10;;;;;;;8.63;6.75;;;;;;;14.25;80.34;100252.31;5017144;28;96990;-82
2022/10/16 03:50:36;;;;;;;8.85;6.40;;;;;;;14.22;80.24;100227.84;5024885;28;97134;-82
2022/10/16 03:53:03;;;;;;;7.65;6.63;;;;;;;14.19;80.62;100233.28;5052326;27;101355;-82
2022/10/16 03:55:28;;;;;;;9.60;7.35;;;;;;;14.32;80.86;100254.66;5036267;28;98064;-82
2022/10/16 03:57:54;;;;;;;9.10;6.75;;;;;;;14.19;81.08;100234.13;5019751;28;97023;-82
2022/10/16 04:00:19;;;;;;;10.30;7.43;;;;;;;14.21;81.10;100239.34;5070940;27;96898;-82
2022/10/16 04:02:45;;;;;;;9.93;7.38;;;;;;;14.32;80.69;100252.00;5035473;28;101005;-82
2022/10/16 04:05:10;;;;;;;7.80;6.88;;;;;;;14.19;81.01;100244.69;5018769;28;101681;-82
2022/10/16 04:07:36;;;;;;;9.85;7.10;;;;;;;14.30;80.71;100249.44;5045487;27;96785;-82
2022/10/16 04:10:02;;;;;;;8.77;7.43;;;;;;;14.23;80.61;100240.97;5052620;27;96884;-82
2022/10/16 04:12:28;;;;;;;6.68;6.07;;;;;;;14.20;81.12;100261.41;5019330;28;98214;-83
2022/10/16 04:14:53;;;;;;;7.95;6.47;;;;;;;14.19;81.15;100263.16;5016594;28;101558;-82
2022/10/16 04:17:19;;;;;;;7.85;6.03;;;;;;;14.09;80.81;100261.91;5019422;28;96982;-83
2022/10/16 04:19:44;;;;;;;7.10;6.10;;;;;;;14.20;80.83;100272.81;5033353;27;97910;-83
2022/10/16 04:22:10;;;;;;;9.48;6.55;;;;;;;14.14;80.78;100259.06;4990533;28;102181;-82
2022/10/16 04:24:36;;;;;;;11.88;7.38;;;;;;;14.21;80.94;100260.44;5052707;27;98028;-82
2022/10/16 04:27:01;;;;;;;12.52;8.90;;;;;;;14.25;80.50;100262.00;5018468;28;97299;-82
2022/10/16 04:29:27;;;;;;;12.10;8.00;;;;;;;14.08;80.45;100254.94;5015661;28;97139;-83
2022/10/16 04:31:52;;;;;;;10.40;8.82;;;;;;;14.15;80.92;100277.44;5067772;27;97691;-85
2022/10/16 04:34:18;;;;;;;8.20;7.10;;;;;;;14.11;80.67;100264.47;5035620;28;97813;-82
2022/10/16 04:36:44;;;;;;;10.32;8.32;;;;;;;14.16;80.82;100273.88;5035815;28;96848;-82
2022/10/16 04:39:09;;;;;;;10.65;8.75;;;;;;;14.18;80.12;100282.56;5035507;28;96955;-82
2022/10/16 04:41:35;;;;;;;10.18;8.90;;;;;;;14.18;80.16;100282.56;5035364;28;97857;-82
2022/10/16 04:44:00;;;;;;;9.20;8.30;;;;;;;14.17;80.29;100282.66;5035203;28;98268;-83
2022/10/16 04:46:26;;;;;;;8.65;7.63;;;;;;;14.16;80.32;100280.94;5036021;28;96628;-82
2022/10/16 04:48:51;;;;;;;12.65;10.25;;;;;;;14.24;79.63;100284.91;5035464;28;96995;-85
2022/10/16 04:51:18;;;;;;;11.80;10.60;;;;;;;14.19;79.67;100286.91;5017877;28;101695;-82
2022/10/16 04:53:44;;;;;;;11.57;10.32;;;;;;;14.12;80.27;100285.53;5021225;28;97532;-82
2022/10/16 04:56:09;;;;;;;14.48;10.93;;;;;;;14.09;80.00;100266.34;5018097;28;96715;-83
2022/10/16 04:58:35;;;;;;;15.32;10.98;;;;;;;14.12;80.06;100277.59;5001413;28;96975;-82
2022/10/16 05:01:00;;;;;;;13.35;11.50;;;;;;;14.02;80.56;100271.06;5017510;28;101388;-82
2022/10/16 05:03:26;;;;;;;13.57;11.23;;;;;;;13.87;80.76;100258.63;5018316;28;97458;-82
2022/10/16 05:05:52;;;;;;;13.68;10.25;;;;;;;13.90;80.80;100272.50;5009838;28;96852;-82
2022/10/16 05:08:17;;;;;;;13.18;10.40;;;;;;;13.97;81.12;100287.13;5018200;28;96978;-84
2022/10/16 05:10:44;;;;;;;9.93;8.98;;;;;;;13.94;81.08;100286.44;5017362;28;101971;-83
2022/10/16 05:13:09;;;;;;;10.52;9.13;;;;;;;14.07;80.65;100290.16;5001036;28;101071;-82
2022/10/16 05:15:35;;;;;;;9.93;8.15;;;;;;;13.87;80.99;100293.75;5034824;27;96750;-82
2022/10/16 05:18:00;;;;;;;8.60;7.13;;;;;;;13.81;80.75;100284.34;5017896;28;97735;-83
2022/10/16 05:20:26;;;;;;;7.85;7.05;;;;;;;13.95;80.86;100293.41;5034730;28;98183;-82
2022/10/16 05:22:51;;;;;;;7.97;7.10;;;;;;;13.89;80.57;100283.16;5036020;27;97604;-83
2022/10/16 05:25:18;;;;;;;10.05;6.90;;;;;;;13.94;80.45;100282.00;5035128;28;97133;-82
2022/10/16 05:27:43;;;;;;;7.40;6.55;;;;;;;14.02;79.77;100287.78;5052074;27;96904;-83
2022/10/16 05:30:09;;;;;;;8.55;6.05;;;;;;;14.11;79.73;100297.03;5034151;28;98454;-82
2022/10/16 05:32:34;;;;;;;9.90;6.85;;;;;;;14.18;79.31;100290.50;5017612;28;98386;-83
2022/10/16 05:35:00;;;;;;;7.53;6.25;;;;;;;14.18;79.10;100303.69;5016883;27;96937;-83
2022/10/16 05:37:27;;;;;;;13.88;6.93;;;;;;;14.15;79.04;100300.34;5052002;27;96770;-82
2022/10/16 05:39:53;;;;;;;6.70;6.00;;;;;;;14.10;79.12;100297.09;5016969;28;101616;-82
2022/10/16 05:42:18;;;;;;;7.18;5.90;;;;;;;14.18;79.43;100308.97;5017486;28;101101;-82
2022/10/16 05:44:44;;;;;;;6.88;5.97;;;;;;;14.13;79.11;100310.97;5034779;28;97083;-83
2022/10/16 05:47:12;;;;;;;7.63;5.65;;;;;;;14.11;79.38;100312.84;5017699;28;96860;-83
2022/10/16 05:49:38;;;;;;;6.95;5.68;;;;;;;14.21;79.36;100318.53;5034146;27;101224;-82
2022/10/16 05:52:03;;;;;;;9.15;5.78;;;;;;;14.11;79.08;100304.94;5016829;28;101466;-82
2022/10/16 05:54:29;;;;;;;7.18;6.20;;;;;;;14.09;79.35;100295.38;5034704;28;97028;-82
2022/10/16 05:56:54;;;;;;;7.00;6.22;;;;;;;14.18;79.44;100316.03;5036370;27;97506;-82
2022/10/16 05:59:20;;;;;;;8.43;6.53;;;;;;;14.21;79.42;100318.53;5003328;27;101690;-82
2022/10/16 06:01:46;;;;;;;8.45;5.75;;;;;;;14.19;79.52;100321.22;5037951;27;97736;-83
2022/10/16 06:04:11;;;;;;;8.05;6.40;;;;;;;14.13;79.46;100310.13;5031115;27;96873;-83
2022/10/16 06:06:37;;;;;;;7.78;6.13;;;;;;;14.04;79.69;100314.91;5017680;28;96969;-82
2022/10/16 06:09:03;;;;;;;5.63;5.10;;;;;;;14.08;79.94;100315.66;5029971;27;97484;-84
2022/10/16 06:11:30;;;;;;;7.95;5.50;;;;;;;14.30;79.86;100331.28;5006276;27;102072;-84
2022/10/16 06:13:57;;;;;;;7.57;5.40;;;;;;;14.37;79.44;100342.38;5037433;27;97101;-83
2022/10/16 06:16:24;;;;;;;7.45;5.38;;;;;;;14.31;79.55;100327.72;5024128;27;97042;-82
2022/10/16 06:18:51;;;;;;;5.97;5.38;;;;;;;14.46;79.03;100339.31;5037302;27;98193;-82
2022/10/16 06:21:18;;;;;;;9.38;5.78;;;;;;;14.53;78.63;100342.53;5031157;27;97823;-82
2022/10/16 06:23:45;;;;;;;7.72;5.72;;;;;;;14.49;78.85;100325.94;5050574;27;97026;-83
2022/10/16 06:26:17;;;;;;;9.18;5.95;;;;;;;14.62;78.78;100327.06;5054196;27;96980;-82
2022/10/16 06:28:42;;;;;;;7.40;5.53;;;;;;;14.69;78.70;100348.75;5036851;27;97848;-82
2022/10/16 06:31:09;;;;;;;6.72;5.32;;;;;;;14.66;78.21;100317.19;5015164;27;101325;-84
2022/10/16 06:33:36;;;;;;;6.25;5.55;;;;;;;14.77;78.44;100340.41;5030191;27;96701;-83
2022/10/16 06:36:15;;;;;;;8.20;5.90;;;;;;;14.88;78.42;100346.03;5017405;27;97158;-86
2022/10/16 06:38:41;;;;;;;6.15;5.07;;;;;;;14.95;78.64;100357.97;5005325;27;101903;-83
2022/10/16 06:41:07;;;;;;;7.55;5.07;;;;;;;15.04;78.22;100351.34;5006744;27;101389;-84
2022/10/16 06:43:36;;;;;;;5.70;5.00;;;;;;;14.93;78.72;100366.00;5007383;27;97114;-83
2022/10/16 06:46:04;;;;;;;6.57;5.13;;;;;;;14.96;79.15;100365.00;5019755;27;97135;-85
2022/10/16 06:48:30;;;;;;;5.85;5.05;;;;;;;15.04;78.56;100380.44;5039548;27;97803;-83
2022/10/16 06:51:01;;;;;;;5.95;4.95;;;;;;;14.91;79.56;100383.72;5022665;27;101432;-83
2022/10/16 06:53:29;;;;;;;4.63;4.23;;;;;;;15.01;79.43;100386.75;5026971;27;96931;-84
2022/10/16 06:55:54;;;;;;;5.40;4.88;;;;;;;15.05;79.31;100382.16;5021677;27;97136;-84
2022/10/16 06:58:20;;;;;;;7.65;4.72;;;;;;;15.16;78.71;100395.69;5017638;27;101255;-87
2022/10/16 07:00:46;;;;;;;5.40;4.88;;;;;;;15.15;79.09;100400.13;5005603;27;101429;-83
2022/10/16 07:03:12;;;;;;;6.93;5.03;;;;;;;15.14;79.30;100393.09;5033757;27;96690;-83
2022/10/16 07:05:41;;;;;;;7.78;4.78;;;;;;;15.20;79.37;100389.28;5035376;27;97364;-84
2022/10/16 07:08:07;;;;;;;6.05;4.88;;;;;;;15.13;79.37;100388.75;5005800;27;101600;-85
2022/10/16 07:10:33;;;;;;;5.70;5.03;;;;;;;15.30;78.81;100401.09;5014074;27;100306;-84
2022/10/16 07:12:59;;;;;;;7.18;4.35;;;;;;;15.27;79.28;100411.84;5039201;27;97009;-85
2022/10/16 07:15:25;;;;;;;5.30;4.32;;;;;;;15.24;79.22;100385.56;5042088;27;97646;-84
2022/10/16 07:17:50;;;;;;;5.20;4.70;;;;;;;15.33;79.21;100418.56;5026711;27;101317;-84
2022/10/16 07:20:16;;;;;;;5.03;4.03;;;;;;;15.53;78.69;100404.31;5049044;27;101036;-85
2022/10/16 07:22:42;;;;;;;5.38;4.35;;;;;;;15.68;78.06;100407.97;5041781;27;97878;-84
2022/10/16 07:25:08;;;;;;;4.00;3.53;;;;;;;15.79;77.66;100414.38;5024359;27;97189;-85
2022/10/16 07:27:34;;;;;;;6.10;3.95;;;;;;;15.92;77.08;100417.22;5024220;27;101106;-84
2022/10/16 07:29:59;;;;;;;5.85;3.45;;;;;;;15.89;77.15;100406.81;5006266;27;101334;-84
2022/10/16 07:32:25;;;;;;;4.22;3.83;;;;;;;16.02;76.59;100407.81;5004974;27;96795;-84
2022/10/16 07:34:51;;;;;;;4.00;3.33;;;;;;;16.13;76.68;100409.03;5039466;27;96919;-84
2022/10/16 07:37:17;;;;;;;6.90;3.35;;;;;;;16.20;76.12;100402.44;5004438;27;101934;-84
2022/10/16 07:39:43;;;;;;;3.45;3.00;;;;;;;16.38;75.57;100421.78;5038860;27;97441;-85
2022/10/16 07:42:08;;;;;;;5.68;3.13;;;;;;;16.34;75.57;100421.06;5020165;27;96879;-80
2022/10/16 07:44:34;;;;;;;13.88;3.92;;;;;;;16.45;75.19;100421.31;5037663;27;97362;-86
2022/10/16 07:46:59;;;;;;;4.47;3.33;;;;;;;16.42;75.20;100412.69;5033021;27;101075;-85
2022/10/16 07:49:25;;;;;;;4.43;3.58;;;;;;;16.51;75.10;100412.16;5064487;27;101044;-85
2022/10/16 07:51:51;;;;;;;5.35;3.10;;;;;;;16.53;74.87;100411.16;5015967;28;96793;-84
2022/10/16 07:54:16;;;;;;;4.00;3.00;;;;;;;16.68;74.44;100411.22;5012521;27;96859;-82
2022/10/16 07:56:42;;;;;;;8.00;3.38;;;;;;;16.81;74.42;100417.53;5035529;27;101503;-86
2022/10/16 07:59:08;;;;;;;6.30;3.45;;;;;;;16.91;73.99;100415.19;5011106;27;99708;-86
2022/10/16 08:01:33;;;;;;;3.30;3.00;;;;;;;16.94;74.25;100412.38;5020061;27;96847;-86
2022/10/16 08:03:59;;;;;;;3.95;3.25;;;;;;;16.96;74.20;100421.94;5003375;27;98306;-85
2022/10/16 08:06:24;;;;;;;3.47;2.90;;;;;;;17.03;73.93;100419.78;5020168;28;97789;-88
2022/10/16 08:08:50;;;;;;;5.38;3.00;;;;;;;17.17;73.57;100425.13;5054235;27;97932;-87
2022/10/16 08:11:16;;;;;;;3.28;2.60;;;;;;;17.27;73.19;100427.22;5021105;27;96880;-84
2022/10/16 08:13:42;;;;;;;3.72;3.00;;;;;;;17.37;73.32;100425.72;5022898;27;96979;-85
2022/10/16 08:16:08;;;;;;;3.42;2.75;;;;;;;17.53;72.66;100428.28;5013092;27;101413;-81
2022/10/16 08:18:37;;;;;;;3.25;2.95;;;;;;;17.57;72.18;100430.66;5021993;27;97418;-91
2022/10/16 08:21:04;;;;;;;4.78;2.85;;;;;;;17.64;71.94;100426.66;5039810;27;96961;-89
2022/10/16 08:23:29;;;;;;;4.40;2.50;;;;;;;17.63;71.59;100424.13;5055322;27;97024;-88
2022/10/16 08:25:56;;;;;;;3.30;2.75;;;;;;;17.79;71.15;100419.59;5035763;27;101644;-84
2022/10/16 08:28:23;;;;;;;3.28;2.80;;;;;;;17.94;70.86;100441.66;5003183;27;100039;-86
2022/10/16 08:30:48;;;;;;;2.50;2.30;;;;;;;18.11;69.78;100437.94;5021081;27;96814;-89
2022/10/16 08:33:14;;;;;;;3.30;2.83;;;;;;;18.06;69.94;100413.47;5021903;27;97858;-83
2022/10/16 08:35:39;;;;;;;3.42;2.42;;;;;;;18.21;69.36;100417.84;5055204;27;101142;-86
2022/10/16 08:38:06;;;;;;;2.83;2.50;;;;;;;18.37;69.04;100443.41;5055060;27;101600;-87
2022/10/16 08:40:34;;;;;;;3.08;2.70;;;;;;;18.51;68.90;100446.88;5021477;27;97534;-87
2022/10/16 08:43:05;;;;;;;3.10;2.22;;;;;;;18.54;68.42;100453.81;5022016;27;97102;-87
2022/10/16 08:45:48;;;;;;;2.92;2.42;;;;;;;18.47;68.63;100444.50;5056747;27;98469;-90
2022/10/16 08:48:32;;;;;;;4.43;3.42;;;;;;;18.57;68.94;100458.06;5013626;27;99894;-90
2022/10/16 08:50:58;;;;;;;6.32;3.63;;;;;;;18.62;68.18;100456.81;5001856;27;96790;-89
2022/10/16 08:53:33;;;;;;;5.13;3.13;;;;;;;18.58;68.17;100442.00;5039550;27;97487;-87
2022/10/16 08:55:59;;;;;;;3.00;2.70;;;;;;;18.60;67.98;100458.72;5052111;27;101456;-88
2022/10/16 08:58:30;;;;;;;6.18;2.60;;;;;;;18.65;68.54;100474.38;4999100;27;101335;-87
2022/10/16 09:00:58;;;;;;;4.93;2.80;;;;;;;18.68;68.13;100474.19;5019019;27;97408;-87
2022/10/16 09:03:42;;;;;;;2.65;2.30;;;;;;;18.73;68.21;100466.72;5018662;27;97159;-89
2022/10/16 09:06:10;;;;;;;3.85;2.70;;;;;;;18.80;68.01;100467.22;5048664;27;101674;-87
2022/10/16 09:08:51;;;;;;;4.90;3.10;;;;;;;18.82;68.20;100465.31;5034103;27;101838;-89
2022/10/16 09:11:39;;;;;;;4.00;2.92;;;;;;;18.83;68.26;100464.38;5017899;27;96776;-89
2022/10/16 09:14:15;;;;;;;5.13;3.17;;;;;;;18.86;68.22;100473.00;5037112;27;97200;-87
2022/10/16 09:16:46;;;;;;;8.48;3.45;;;;;;;18.96;67.88;100465.25;5037004;27;98270;-89
2022/10/16 09:19:21;;;;;;;3.42;2.53;;;;;;;19.11;67.21;100456.25;4996289;27;100294;-85
2022/10/16 09:21:47;;;;;;;3.10;2.60;;;;;;;19.42;66.38;100470.13;5011161;27;97382;-88
2022/10/16 09:24:20;;;;;;;3.83;2.65;;;;;;;19.66;65.25;100472.91;5020545;27;97403;-87
2022/10/16 09:26:46;;;;;;;3.70;2.42;;;;;;;19.73;65.06;100476.88;5005784;27;101361;-87
2022/10/16 09:29:20;;;;;;;4.45;2.88;;;;;;;19.66;65.04;100471.13;5018884;27;100965;-86
2022/10/16 09:31:46;;;;;;;4.60;2.45;;;;;;;19.54;65.47;100476.41;5018735;27;97226;-86
2022/10/16 09:34:27;;;;;;;2.80;2.13;;;;;;;21.19;60.76;100480.47;5003389;27;97263;-86
2022/10/16 09:36:53;;;;;;;3.72;2.40;;;;;;;20.84;61.74;100480.47;5002662;27;100372;-87
2022/10/16 09:39:18;;;;;;;2.45;2.20;;;;;;;21.67;60.17;100476.84;5019361;27;101203;-85
2022/10/16 09:41:44;;;;;;;3.05;2.30;;;;;;;22.58;57.66;100478.53;5036992;27;96842;-87
2022/10/16 09:44:18;;;;;;;2.30;1.85;;;;;;;23.09;55.16;100467.16;5002284;27;97264;-79
2022/10/16 09:46:44;;;;;;;5.53;2.67;;;;;;;23.46;55.35;100462.22;5032307;27;101111;-84
2022/10/16 09:49:18;;;;;;;3.20;2.10;;;;;;;23.04;55.69;100466.72;5032694;27;98193;-81
2022/10/16 09:51:44;;;;;;;3.53;2.10;;;;;;;22.42;57.77;100462.88;5045336;27;97989;-82
2022/10/16 09:54:09;;;;;;;4.03;2.08;;;;;;;22.09;58.06;100464.59;5024480;27;97881;-81
2022/10/16 09:56:38;;;;;;;3.13;2.05;;;;;;;22.67;56.33;100456.38;5031420;27;101110;-81
2022/10/16 09:59:11;;;;;;;3.40;1.88;;;;;;;22.94;55.78;100460.41;5041957;27;97816;-82
2022/10/16 10:01:41;;;;;;;3.00;2.03;;;;;;;22.72;56.39;100462.19;5032971;27;97275;-83
2022/10/16 10:04:07;;;;;;;4.20;2.20;;;;;;;22.22;57.41;100437.75;5017857;27;97261;-82
2022/10/16 10:06:37;;;;;;;3.47;1.90;;;;;;;22.91;56.31;100456.16;5012890;27;97578;-83
2022/10/16 10:09:25;;;;;;;1.80;1.70;;;;;;;23.62;54.54;100455.53;4994667;27;101263;-83
2022/10/16 10:12:34;;;;;;;3.00;2.00;;;;;;;24.07;53.03;100456.03;4996782;27;96879;-83
2022/10/16 10:15:07;;;;;;;2.90;1.83;;;;;;;23.14;55.50;100461.44;5031800;27;97068;-84
2022/10/16 10:17:34;;;;;;;2.60;2.28;;;;;;;23.26;54.95;100463.06;4998131;27;101647;-83
2022/10/16 10:20:19;;;;;;;2.20;1.95;;;;;;;24.13;53.32;100449.28;5000828;28;101561;-83
2022/10/16 10:22:48;;;;;;;2.20;1.60;;;;;;;24.59;51.91;100463.97;5011370;27;96913;-83
2022/10/16 10:25:13;;;;;;;5.78;2.60;;;;;;;24.59;53.65;100469.34;5013690;28;97775;-84
2022/10/16 10:28:01;;;;;;;4.22;2.67;;;;;;;24.68;53.62;100462.28;5034758;27;101635;-83
2022/10/16 10:30:54;;;;;;;4.18;2.35;;;;;;;24.59;53.99;100456.75;5025650;27;101789;-83
2022/10/16 10:33:35;;;;;;;3.55;2.15;;;;;;;24.12;53.85;100444.91;5042839;27;96858;-83
2022/10/16 10:36:00;;;;;;;4.25;2.22;;;;;;;24.31;54.32;100462.88;5049385;27;97150;-82
2022/10/16 10:38:45;;;;;;;3.20;1.85;;;;;;;24.30;54.28;100461.19;5037307;27;101392;-82
2022/10/16 10:41:26;;;;;;;3.22;1.80;;;;;;;24.04;52.72;100464.34;5042176;27;98445;-81
2022/10/16 10:44:08;;;;;;;6.10;1.67;;;;;;;23.54;53.16;100455.34;5054313;27;97881;-83
2022/10/16 10:46:40;;;;;;;1.65;1.55;;;;;;;23.26;55.12;100444.31;5037330;27;97153;-85
2022/10/16 10:49:27;;;;;;;5.43;1.75;;;;;;;23.13;55.25;100436.50;4998820;27;99901;-86
2022/10/16 10:51:59;;;;;;;6.78;1.85;;;;;;;22.94;56.25;100453.22;5068052;27;100879;-84
2022/10/16 10:54:30;;;;;;;2.33;1.50;;;;;;;22.80;56.16;100457.03;5014155;27;96986;-82
2022/10/16 10:57:06;;;;;;;2.63;1.92;;;;;;;22.71;55.93;100444.41;5021843;27;97059;-83
2022/10/16 11:00:09;;;;;;;1.63;1.50;;;;;;;22.77;55.83;100454.63;5037810;27;101594;-83
2022/10/16 11:02:46;;;;;;;1.60;1.40;;;;;;;22.51;56.35;100462.13;5034888;27;97757;-82
2022/10/16 11:05:35;;;;;;;1.90;1.70;;;;;;;22.58;55.76;100457.97;5025706;27;97396;-82
2022/10/16 11:08:07;;;;;;;2.50;2.00;;;;;;;22.20;56.26;100450.41;5024125;27;96967;-83
2022/10/16 11:10:46;;;;;;;3.40;1.52;;;;;;;22.02;56.49;100458.06;5037534;27;101664;-82
2022/10/16 11:13:30;;;;;;;3.95;1.92;;;;;;;22.00;56.63;100443.09;5054444;27;99921;-82
2022/10/16 11:15:59;;;;;;;2.58;1.63;;;;;;;21.84;57.32;100443.47;5020728;27;97364;-82
2022/10/16 11:18:30;;;;;;;4.30;1.70;;;;;;;21.75;58.34;100444.19;5004363;27;96998;-84
2022/10/16 11:21:07;;;;;;;1.40;1.30;;;;;;;21.65;58.76;100442.25;5027825;27;98757;-82
2022/10/16 11:24:00;;;;;;;2.05;1.85;;;;;;;21.65;57.95;100446.75;5018649;27;98375;-80
2022/10/16 11:26:34;;;;;;;2.67;1.63;;;;;;;21.43;58.11;100439.53;5016025;27;97656;-88
2022/10/16 11:29:02;;;;;;;2.50;1.75;;;;;;;21.53;57.88;100447.72;5003212;27;97473;-88
2022/10/16 11:31:40;;;;;;;3.22;1.90;;;;;;;21.36;57.99;100422.28;5032542;27;101747;-91